1992 FARIDA (1992055S11086)


On this page: IBTrACS data - Map and Plots - Positions - Intensities - Original source data

Summary

Start Feb 23
End Mar 4
Basin SI
LMI 120 kt
Sources jtwc_sh
reunion
neumann
In WMO? Yes
Previous storm 1992 ELIZABETA (SI)
Previous in basin 1992 ELIZABETA (SI)
Concurrent storms 1992 DAVILIA (SI)
1992 ELIZABETA (SI)
1992 FARIDA (SI)
1992 IAN (SI)
1992 ESAU (SP)
1992 GERDA (SI)
1992 HARRIET (SI)
1992 H19192 (SI)
1992 FRAN (SP)
Next in basin 1992 IAN (SI)
Next storm 1992 IAN (SI)

top of page IBTrACS Data: File Access

top of page HURSAT Data: File Access

Image of storm

top of page Plots:

Map of storm track will not appear if FTP is down
Time series of cyclone Maximum Sustained Wind will not appear if FTP is down
Time series of cyclone Minimum Central Pressure will not appear if FTP is down

top of page Track Data:Position

jtwc_sh reunion neumann
Date Lat Lon Lat Lon Lat Lon
1992-02-23 12:00:00 -11.3 86.4
1992-02-23 18:00:00 -11.8 83.8 -11.3 85.7 -11.8 83.8
1992-02-24 00:00:00 -12.2 84.5 -11.4 85.0 -12.2 84.5
1992-02-24 06:00:00 -12.6 83.9 -11.6 83.9 -12.6 83.9
1992-02-24 12:00:00 -12.9 83.4 -12.1 82.8 -12.9 83.4
1992-02-24 18:00:00 -13.3 82.9 -12.7 82.2 -13.3 82.9
1992-02-25 00:00:00 -13.7 82.5 -13.3 81.8 -13.7 82.5
1992-02-25 06:00:00 -14.1 82.1 -13.9 81.4 -14.1 82.1
1992-02-25 12:00:00 -14.6 81.7 -14.6 81.2 -14.6 81.7
1992-02-25 18:00:00 -15.0 81.4 -15.2 81.1 -15.0 81.4
1992-02-26 00:00:00 -15.5 81.1 -15.8 80.9 -15.5 81.1
1992-02-26 06:00:00 -15.9 80.8 -16.2 80.7 -15.9 80.8
1992-02-26 12:00:00 -16.3 80.5 -16.5 80.5 -16.3 80.5
1992-02-26 18:00:00 -16.7 80.2 -16.9 80.2 -16.7 80.2
1992-02-27 00:00:00 -17.1 79.8 -17.3 79.8 -17.1 79.8
1992-02-27 06:00:00 -17.5 79.3 -17.7 79.5 -17.5 79.3
1992-02-27 12:00:00 -17.8 78.7 -18.2 79.0 -17.8 78.7
1992-02-27 18:00:00 -18.0 78.0 -18.2 78.1 -18.0 78.0
1992-02-28 00:00:00 -18.1 77.4 -18.1 77.4 -18.1 77.4
1992-02-28 06:00:00 -18.3 76.8 -18.4 76.9 -18.3 76.8
1992-02-28 12:00:00 -18.6 76.2 -18.8 76.4 -18.6 76.2
1992-02-28 18:00:00 -18.9 75.7 -18.9 75.6 -18.9 75.7
1992-02-29 00:00:00 -19.2 75.1 -19.1 74.9 -19.2 75.1
1992-02-29 06:00:00 -19.5 74.7 -19.6 74.6 -19.5 74.7
1992-02-29 12:00:00 -19.9 74.2 -20.1 74.1 -19.9 74.2
jtwc_sh reunion neumann
1992-02-29 18:00:00 -20.4 73.7 -20.3 73.6 -20.4 73.7
1992-03-01 00:00:00 -20.9 73.1 -20.5 73.1 -20.9 73.1
1992-03-01 06:00:00 -21.5 72.3 -20.8 72.7 -21.5 72.3
1992-03-01 12:00:00 -22.0 71.4 -21.0 72.3 -22.0 71.4
1992-03-01 18:00:00 -22.4 70.4 -21.6 71.3 -22.4 70.4
1992-03-02 00:00:00 -22.8 69.2 -22.4 69.5 -22.8 69.2
1992-03-02 06:00:00 -23.2 68.0 -23.2 67.9 -23.2 68.0
1992-03-02 12:00:00 -23.7 66.8 -23.8 66.6 -23.7 66.8
1992-03-02 18:00:00 -24.3 65.5 -24.4 65.3 -24.3 65.5
1992-03-03 00:00:00 -25.1 64.3 -25.2 64.8 -25.1 64.3
1992-03-03 06:00:00 -26.1 63.2 -25.8 64.1 -26.1 63.2
1992-03-03 12:00:00 -27.2 62.1 -26.0 63.5 -27.2 62.1
1992-03-03 18:00:00 -28.3 61.0 -26.0 62.8 -28.3 61.0
1992-03-04 00:00:00 -25.5 62.1
1992-03-04 06:00:00 -24.9 61.2
1992-03-04 12:00:00 -23.9 60.3

top of pageTrack Data:Intensity

jtwc_sh reunion neumann
Date Wind Pres Wind Pres Wind Pres
1992-02-23 12:00:00 20. 1003.
1992-02-23 18:00:00 25. 24. 1000. 25.
1992-02-24 00:00:00 25. 28. 997. 25.
1992-02-24 06:00:00 25. 28. 997. 25.
1992-02-24 12:00:00 30. 28. 997. 30.
1992-02-24 18:00:00 30. 28. 997. 30.
1992-02-25 00:00:00 30. 32. 994. 30.
1992-02-25 06:00:00 35. 36. 991. 35.
1992-02-25 12:00:00 35. 41. 987. 35.
1992-02-25 18:00:00 40. 44. 984. 40.
1992-02-26 00:00:00 45. 48. 980. 45.
1992-02-26 06:00:00 55. 52. 976. 55.
1992-02-26 12:00:00 60. 58. 970. 60.
1992-02-26 18:00:00 65. 62. 966. 65.
1992-02-27 00:00:00 75. 62. 966. 75.
1992-02-27 06:00:00 80. 68. 959. 80.
1992-02-27 12:00:00 80. 72. 954. 80.
1992-02-27 18:00:00 85. 72. 954. 85.
1992-02-28 00:00:00 95. 72. 954. 95.
1992-02-28 06:00:00 105. 72. 954. 105.
1992-02-28 12:00:00 115. 82. 941. 115.
1992-02-28 18:00:00 120. 82. 941. 120.
1992-02-29 00:00:00 120. 82. 941. 120.
1992-02-29 06:00:00 120. 77. 948. 120.
1992-02-29 12:00:00 115. 77. 948. 115.
jtwc_sh reunion neumann
1992-02-29 18:00:00 115. 72. 954. 115.
1992-03-01 00:00:00 110. 72. 954. 110.
1992-03-01 06:00:00 110. 72. 954. 110.
1992-03-01 12:00:00 105. 62. 966. 105.
1992-03-01 18:00:00 100. 52. 976. 100.
1992-03-02 00:00:00 90. 44. 984. 90.
1992-03-02 06:00:00 80. 44. 984. 80.
1992-03-02 12:00:00 70. 36. 991. 70.
1992-03-02 18:00:00 65. 28. 997. 65.
1992-03-03 00:00:00 55. 24. 1000. 55.
1992-03-03 06:00:00 50. 24. 1000. 50.
1992-03-03 12:00:00 40. 24. 1000. 40.
1992-03-03 18:00:00 30. 21. 1002. 30.
1992-03-04 00:00:00
1992-03-04 06:00:00
1992-03-04 12:00:00

top of page Links to source data

Source Source file Format
jtwc_sh bsh221992.txt ATCF
reunion WMO-Best-Tracks.txt:Line=15662:farida WMO (old format)
neumann tracks.sh:Storm=944:FARIDA:BSH221992:JTWC HURDAT